sensor_id;sensor_type;location;lat;lon;timestamp;P1;durP1;ratioP1;P2;durP2;ratioP2
26042;SDS011;13818;52.156;5.382;2024-01-30T00:01:49;6.97;;;3.88;;
26042;SDS011;13818;52.156;5.382;2024-01-30T00:04:16;7.88;;;4.47;;
26042;SDS011;13818;52.156;5.382;2024-01-30T00:06:42;6.55;;;4.18;;
26042;SDS011;13818;52.156;5.382;2024-01-30T00:09:09;6.38;;;3.80;;
26042;SDS011;13818;52.156;5.382;2024-01-30T00:11:36;9.20;;;3.85;;
26042;SDS011;13818;52.156;5.382;2024-01-30T00:14:02;7.82;;;4.50;;
26042;SDS011;13818;52.156;5.382;2024-01-30T00:16:36;6.22;;;3.67;;
26042;SDS011;13818;52.156;5.382;2024-01-30T00:19:03;5.28;;;3.83;;
26042;SDS011;13818;52.156;5.382;2024-01-30T00:21:29;6.38;;;3.90;;
26042;SDS011;13818;52.156;5.382;2024-01-30T00:23:56;7.80;;;4.13;;
26042;SDS011;13818;52.156;5.382;2024-01-30T00:26:22;8.95;;;4.28;;
26042;SDS011;13818;52.156;5.382;2024-01-30T00:28:48;6.25;;;3.90;;
26042;SDS011;13818;52.156;5.382;2024-01-30T00:31:15;9.68;;;3.65;;
26042;SDS011;13818;52.156;5.382;2024-01-30T00:33:43;8.55;;;4.47;;
26042;SDS011;13818;52.156;5.382;2024-01-30T00:36:09;10.10;;;4.68;;
26042;SDS011;13818;52.156;5.382;2024-01-30T00:38:36;7.57;;;4.30;;
26042;SDS011;13818;52.156;5.382;2024-01-30T00:41:03;6.90;;;4.28;;
26042;SDS011;13818;52.156;5.382;2024-01-30T00:43:30;5.97;;;4.40;;
26042;SDS011;13818;52.156;5.382;2024-01-30T00:45:57;7.15;;;3.97;;
26042;SDS011;13818;52.156;5.382;2024-01-30T00:48:24;8.40;;;4.53;;
26042;SDS011;13818;52.156;5.382;2024-01-30T00:50:51;7.18;;;4.10;;
26042;SDS011;13818;52.156;5.382;2024-01-30T00:53:18;7.82;;;4.32;;
26042;SDS011;13818;52.156;5.382;2024-01-30T00:55:46;6.57;;;3.60;;
26042;SDS011;13818;52.156;5.382;2024-01-30T01:00:39;4.78;;;3.05;;
26042;SDS011;13818;52.156;5.382;2024-01-30T01:03:06;11.82;;;5.15;;
26042;SDS011;13818;52.156;5.382;2024-01-30T01:05:32;8.52;;;3.80;;
26042;SDS011;13818;52.156;5.382;2024-01-30T01:08:00;5.40;;;3.10;;
26042;SDS011;13818;52.156;5.382;2024-01-30T01:10:26;7.47;;;4.55;;
26042;SDS011;13818;52.156;5.382;2024-01-30T01:12:53;7.93;;;4.28;;
26042;SDS011;13818;52.156;5.382;2024-01-30T01:15:20;9.05;;;4.65;;
26042;SDS011;13818;52.156;5.382;2024-01-30T01:17:46;8.77;;;3.63;;
26042;SDS011;13818;52.156;5.382;2024-01-30T01:20:13;8.13;;;4.25;;
26042;SDS011;13818;52.156;5.382;2024-01-30T01:22:39;9.85;;;4.85;;
26042;SDS011;13818;52.156;5.382;2024-01-30T01:25:08;9.73;;;4.80;;
26042;SDS011;13818;52.156;5.382;2024-01-30T01:27:35;5.93;;;3.63;;
26042;SDS011;13818;52.156;5.382;2024-01-30T01:30:06;8.63;;;5.00;;
26042;SDS011;13818;52.156;5.382;2024-01-30T01:32:34;5.80;;;4.00;;
26042;SDS011;13818;52.156;5.382;2024-01-30T01:35:01;6.15;;;4.43;;
26042;SDS011;13818;52.156;5.382;2024-01-30T01:37:30;4.38;;;3.35;;
26042;SDS011;13818;52.156;5.382;2024-01-30T01:39:57;13.77;;;4.93;;
26042;SDS011;13818;52.156;5.382;2024-01-30T01:42:24;10.00;;;4.35;;
26042;SDS011;13818;52.156;5.382;2024-01-30T01:44:51;7.57;;;4.72;;
26042;SDS011;13818;52.156;5.382;2024-01-30T01:47:17;3.78;;;3.17;;
26042;SDS011;13818;52.156;5.382;2024-01-30T01:49:44;6.85;;;4.38;;
26042;SDS011;13818;52.156;5.382;2024-01-30T01:52:10;5.00;;;3.67;;
26042;SDS011;13818;52.156;5.382;2024-01-30T01:54:37;9.95;;;4.97;;
26042;SDS011;13818;52.156;5.382;2024-01-30T01:57:04;9.27;;;4.15;;
26042;SDS011;13818;52.156;5.382;2024-01-30T01:59:32;7.25;;;4.25;;
26042;SDS011;13818;52.156;5.382;2024-01-30T02:01:58;8.77;;;5.43;;
26042;SDS011;13818;52.156;5.382;2024-01-30T02:04:28;9.60;;;3.92;;
26042;SDS011;13818;52.156;5.382;2024-01-30T02:06:54;6.35;;;4.03;;
26042;SDS011;13818;52.156;5.382;2024-01-30T02:09:21;6.15;;;3.85;;
26042;SDS011;13818;52.156;5.382;2024-01-30T02:11:47;8.65;;;4.82;;
26042;SDS011;13818;52.156;5.382;2024-01-30T02:14:14;6.70;;;4.45;;
26042;SDS011;13818;52.156;5.382;2024-01-30T02:16:42;6.97;;;4.75;;
26042;SDS011;13818;52.156;5.382;2024-01-30T02:19:08;5.68;;;4.45;;
26042;SDS011;13818;52.156;5.382;2024-01-30T02:21:36;8.82;;;4.20;;
26042;SDS011;13818;52.156;5.382;2024-01-30T02:24:04;6.45;;;3.50;;
26042;SDS011;13818;52.156;5.382;2024-01-30T02:28:57;7.15;;;3.70;;
26042;SDS011;13818;52.156;5.382;2024-01-30T02:31:24;8.02;;;4.20;;
26042;SDS011;13818;52.156;5.382;2024-01-30T02:33:51;4.70;;;3.85;;
26042;SDS011;13818;52.156;5.382;2024-01-30T02:36:17;6.65;;;4.07;;
26042;SDS011;13818;52.156;5.382;2024-01-30T02:38:45;6.38;;;4.25;;
26042;SDS011;13818;52.156;5.382;2024-01-30T02:41:12;7.30;;;3.90;;
26042;SDS011;13818;52.156;5.382;2024-01-30T02:43:39;8.00;;;4.47;;
26042;SDS011;13818;52.156;5.382;2024-01-30T02:46:05;6.97;;;4.90;;
26042;SDS011;13818;52.156;5.382;2024-01-30T02:48:32;7.90;;;4.43;;
26042;SDS011;13818;52.156;5.382;2024-01-30T02:50:58;5.40;;;3.42;;
26042;SDS011;13818;52.156;5.382;2024-01-30T02:53:26;4.60;;;3.10;;
26042;SDS011;13818;52.156;5.382;2024-01-30T02:55:53;11.13;;;4.43;;
26042;SDS011;13818;52.156;5.382;2024-01-30T02:58:20;6.60;;;4.20;;
26042;SDS011;13818;52.156;5.382;2024-01-30T03:00:46;6.88;;;3.95;;
26042;SDS011;13818;52.156;5.382;2024-01-30T03:03:13;6.15;;;3.90;;
26042;SDS011;13818;52.156;5.382;2024-01-30T03:05:39;5.60;;;4.13;;
26042;SDS011;13818;52.156;5.382;2024-01-30T03:08:05;10.00;;;4.50;;
26042;SDS011;13818;52.156;5.382;2024-01-30T03:10:32;8.50;;;3.35;;
26042;SDS011;13818;52.156;5.382;2024-01-30T03:13:00;6.63;;;4.65;;
26042;SDS011;13818;52.156;5.382;2024-01-30T03:15:26;8.45;;;4.22;;
26042;SDS011;13818;52.156;5.382;2024-01-30T03:17:53;14.75;;;3.25;;
26042;SDS011;13818;52.156;5.382;2024-01-30T03:20:19;7.53;;;3.10;;
26042;SDS011;13818;52.156;5.382;2024-01-30T03:22:46;7.40;;;4.22;;
26042;SDS011;13818;52.156;5.382;2024-01-30T03:25:12;4.28;;;3.70;;
26042;SDS011;13818;52.156;5.382;2024-01-30T03:27:39;7.53;;;3.78;;
26042;SDS011;13818;52.156;5.382;2024-01-30T03:30:07;5.97;;;3.50;;
26042;SDS011;13818;52.156;5.382;2024-01-30T03:32:34;9.38;;;4.68;;
26042;SDS011;13818;52.156;5.382;2024-01-30T03:35:01;9.07;;;5.72;;
26042;SDS011;13818;52.156;5.382;2024-01-30T03:37:27;8.98;;;5.20;;
26042;SDS011;13818;52.156;5.382;2024-01-30T03:39:54;8.45;;;4.80;;
26042;SDS011;13818;52.156;5.382;2024-01-30T03:42:20;8.05;;;5.05;;
26042;SDS011;13818;52.156;5.382;2024-01-30T03:44:47;5.55;;;3.08;;
26042;SDS011;13818;52.156;5.382;2024-01-30T03:47:18;8.10;;;4.72;;
26042;SDS011;13818;52.156;5.382;2024-01-30T03:49:44;7.40;;;4.25;;
26042;SDS011;13818;52.156;5.382;2024-01-30T03:52:11;7.95;;;4.40;;
26042;SDS011;13818;52.156;5.382;2024-01-30T03:54:37;8.48;;;5.47;;
26042;SDS011;13818;52.156;5.382;2024-01-30T03:57:04;4.43;;;3.38;;
26042;SDS011;13818;52.156;5.382;2024-01-30T03:59:31;6.88;;;3.60;;
26042;SDS011;13818;52.156;5.382;2024-01-30T04:01:58;5.38;;;3.85;;
26042;SDS011;13818;52.156;5.382;2024-01-30T04:04:26;8.60;;;4.50;;
26042;SDS011;13818;52.156;5.382;2024-01-30T04:06:52;7.53;;;3.90;;
26042;SDS011;13818;52.156;5.382;2024-01-30T04:09:18;18.27;;;4.25;;
26042;SDS011;13818;52.156;5.382;2024-01-30T04:11:45;9.50;;;4.20;;
26042;SDS011;13818;52.156;5.382;2024-01-30T04:14:11;8.77;;;3.97;;
26042;SDS011;13818;52.156;5.382;2024-01-30T04:16:38;5.80;;;2.90;;
26042;SDS011;13818;52.156;5.382;2024-01-30T04:19:04;4.75;;;3.33;;
26042;SDS011;13818;52.156;5.382;2024-01-30T04:21:32;8.65;;;4.45;;
26042;SDS011;13818;52.156;5.382;2024-01-30T04:23:58;6.03;;;3.40;;
26042;SDS011;13818;52.156;5.382;2024-01-30T04:26:25;9.45;;;3.38;;
26042;SDS011;13818;52.156;5.382;2024-01-30T04:28:51;6.55;;;4.28;;
26042;SDS011;13818;52.156;5.382;2024-01-30T04:31:18;6.00;;;3.40;;
26042;SDS011;13818;52.156;5.382;2024-01-30T04:33:44;6.45;;;4.30;;
26042;SDS011;13818;52.156;5.382;2024-01-30T04:36:11;6.30;;;3.38;;
26042;SDS011;13818;52.156;5.382;2024-01-30T04:38:41;5.28;;;3.20;;
26042;SDS011;13818;52.156;5.382;2024-01-30T04:41:07;7.70;;;3.90;;
26042;SDS011;13818;52.156;5.382;2024-01-30T04:43:34;5.57;;;3.03;;
26042;SDS011;13818;52.156;5.382;2024-01-30T04:46:00;5.63;;;3.42;;
26042;SDS011;13818;52.156;5.382;2024-01-30T04:48:27;8.15;;;3.50;;
26042;SDS011;13818;52.156;5.382;2024-01-30T04:50:54;4.70;;;3.40;;
26042;SDS011;13818;52.156;5.382;2024-01-30T04:53:21;10.05;;;3.78;;
26042;SDS011;13818;52.156;5.382;2024-01-30T04:55:49;5.68;;;2.83;;
26042;SDS011;13818;52.156;5.382;2024-01-30T04:58:15;3.58;;;2.50;;
26042;SDS011;13818;52.156;5.382;2024-01-30T05:00:42;4.80;;;3.55;;
26042;SDS011;13818;52.156;5.382;2024-01-30T05:03:08;10.07;;;4.03;;
26042;SDS011;13818;52.156;5.382;2024-01-30T05:05:35;4.82;;;2.95;;
26042;SDS011;13818;52.156;5.382;2024-01-30T05:08:01;8.23;;;3.95;;
26042;SDS011;13818;52.156;5.382;2024-01-30T05:10:28;7.97;;;3.50;;
26042;SDS011;13818;52.156;5.382;2024-01-30T05:12:56;5.20;;;3.67;;
26042;SDS011;13818;52.156;5.382;2024-01-30T05:15:22;7.65;;;4.43;;
26042;SDS011;13818;52.156;5.382;2024-01-30T05:17:48;12.35;;;3.88;;
26042;SDS011;13818;52.156;5.382;2024-01-30T05:20:16;6.15;;;2.88;;
26042;SDS011;13818;52.156;5.382;2024-01-30T05:22:42;7.03;;;3.83;;
26042;SDS011;13818;52.156;5.382;2024-01-30T05:25:10;6.82;;;3.25;;
26042;SDS011;13818;52.156;5.382;2024-01-30T05:27:36;6.18;;;3.47;;
26042;SDS011;13818;52.156;5.382;2024-01-30T05:30:05;6.32;;;3.40;;
26042;SDS011;13818;52.156;5.382;2024-01-30T05:32:32;5.75;;;3.72;;
26042;SDS011;13818;52.156;5.382;2024-01-30T05:34:59;4.35;;;3.63;;
26042;SDS011;13818;52.156;5.382;2024-01-30T05:37:25;5.82;;;2.85;;
26042;SDS011;13818;52.156;5.382;2024-01-30T05:39:52;5.00;;;3.38;;
26042;SDS011;13818;52.156;5.382;2024-01-30T05:42:18;5.38;;;3.28;;
26042;SDS011;13818;52.156;5.382;2024-01-30T05:44:45;9.30;;;4.60;;
26042;SDS011;13818;52.156;5.382;2024-01-30T05:47:12;5.97;;;4.32;;
26042;SDS011;13818;52.156;5.382;2024-01-30T05:49:39;4.40;;;3.42;;
26042;SDS011;13818;52.156;5.382;2024-01-30T05:52:05;8.88;;;3.80;;
26042;SDS011;13818;52.156;5.382;2024-01-30T05:54:32;7.28;;;3.38;;
26042;SDS011;13818;52.156;5.382;2024-01-30T05:56:58;7.22;;;3.45;;
26042;SDS011;13818;52.156;5.382;2024-01-30T05:59:25;7.53;;;4.22;;
26042;SDS011;13818;52.156;5.382;2024-01-30T06:01:52;7.07;;;2.72;;
26042;SDS011;13818;52.156;5.382;2024-01-30T06:04:20;5.05;;;3.20;;
26042;SDS011;13818;52.156;5.382;2024-01-30T06:06:46;6.30;;;3.00;;
26042;SDS011;13818;52.156;5.382;2024-01-30T06:09:13;6.68;;;3.95;;
26042;SDS011;13818;52.156;5.382;2024-01-30T06:11:40;4.95;;;2.75;;
26042;SDS011;13818;52.156;5.382;2024-01-30T06:14:06;5.43;;;3.20;;
26042;SDS011;13818;52.156;5.382;2024-01-30T06:16:32;6.75;;;3.58;;
26042;SDS011;13818;52.156;5.382;2024-01-30T06:18:59;4.47;;;3.33;;
26042;SDS011;13818;52.156;5.382;2024-01-30T06:21:27;7.93;;;3.45;;
26042;SDS011;13818;52.156;5.382;2024-01-30T06:23:53;6.50;;;3.15;;
26042;SDS011;13818;52.156;5.382;2024-01-30T06:26:20;9.52;;;3.58;;
26042;SDS011;13818;52.156;5.382;2024-01-30T06:28:46;5.38;;;3.45;;
26042;SDS011;13818;52.156;5.382;2024-01-30T06:31:13;5.10;;;3.10;;
26042;SDS011;13818;52.156;5.382;2024-01-30T06:33:39;8.02;;;3.95;;
26042;SDS011;13818;52.156;5.382;2024-01-30T06:36:07;5.63;;;3.50;;
26042;SDS011;13818;52.156;5.382;2024-01-30T06:38:35;7.60;;;3.20;;
26042;SDS011;13818;52.156;5.382;2024-01-30T06:41:02;7.80;;;3.97;;
26042;SDS011;13818;52.156;5.382;2024-01-30T06:43:28;11.05;;;4.18;;
26042;SDS011;13818;52.156;5.382;2024-01-30T06:45:55;8.73;;;3.15;;
26042;SDS011;13818;52.156;5.382;2024-01-30T06:48:21;7.25;;;2.83;;
26042;SDS011;13818;52.156;5.382;2024-01-30T06:50:48;5.72;;;3.05;;
26042;SDS011;13818;52.156;5.382;2024-01-30T06:53:15;6.00;;;3.65;;
26042;SDS011;13818;52.156;5.382;2024-01-30T06:55:43;5.60;;;3.17;;
26042;SDS011;13818;52.156;5.382;2024-01-30T06:58:10;6.53;;;3.72;;
26042;SDS011;13818;52.156;5.382;2024-01-30T07:00:37;10.80;;;2.33;;
26042;SDS011;13818;52.156;5.382;2024-01-30T07:03:04;4.55;;;3.10;;
26042;SDS011;13818;52.156;5.382;2024-01-30T07:05:31;6.30;;;3.03;;
26042;SDS011;13818;52.156;5.382;2024-01-30T07:07:58;6.13;;;3.60;;
26042;SDS011;13818;52.156;5.382;2024-01-30T07:10:24;6.13;;;3.72;;
26042;SDS011;13818;52.156;5.382;2024-01-30T07:12:52;5.28;;;2.35;;
26042;SDS011;13818;52.156;5.382;2024-01-30T07:15:19;6.43;;;3.40;;
26042;SDS011;13818;52.156;5.382;2024-01-30T07:17:45;7.63;;;3.38;;
26042;SDS011;13818;52.156;5.382;2024-01-30T07:20:12;5.30;;;3.20;;
26042;SDS011;13818;52.156;5.382;2024-01-30T07:22:39;5.78;;;3.28;;
26042;SDS011;13818;52.156;5.382;2024-01-30T07:25:06;4.97;;;3.00;;
26042;SDS011;13818;52.156;5.382;2024-01-30T07:27:33;6.22;;;2.85;;
26042;SDS011;13818;52.156;5.382;2024-01-30T07:30:01;6.97;;;3.42;;
26042;SDS011;13818;52.156;5.382;2024-01-30T07:32:27;7.65;;;3.28;;
26042;SDS011;13818;52.156;5.382;2024-01-30T07:34:54;9.98;;;3.90;;
26042;SDS011;13818;52.156;5.382;2024-01-30T07:37:20;7.07;;;3.38;;
26042;SDS011;13818;52.156;5.382;2024-01-30T07:39:47;7.13;;;2.83;;
26042;SDS011;13818;52.156;5.382;2024-01-30T07:42:13;4.35;;;2.88;;
26042;SDS011;13818;52.156;5.382;2024-01-30T07:44:40;6.55;;;3.53;;
26042;SDS011;13818;52.156;5.382;2024-01-30T07:47:08;6.72;;;3.30;;
26042;SDS011;13818;52.156;5.382;2024-01-30T07:49:34;5.70;;;2.67;;
26042;SDS011;13818;52.156;5.382;2024-01-30T07:52:00;5.38;;;3.40;;
26042;SDS011;13818;52.156;5.382;2024-01-30T07:54:27;4.60;;;3.08;;
26042;SDS011;13818;52.156;5.382;2024-01-30T07:56:53;4.88;;;3.45;;
26042;SDS011;13818;52.156;5.382;2024-01-30T07:59:20;9.45;;;3.45;;
26042;SDS011;13818;52.156;5.382;2024-01-30T08:01:49;5.93;;;3.05;;
26042;SDS011;13818;52.156;5.382;2024-01-30T08:04:17;9.20;;;4.03;;
26042;SDS011;13818;52.156;5.382;2024-01-30T08:06:44;5.20;;;3.08;;
26042;SDS011;13818;52.156;5.382;2024-01-30T08:09:10;6.32;;;3.25;;
26042;SDS011;13818;52.156;5.382;2024-01-30T08:11:36;4.88;;;3.17;;
26042;SDS011;13818;52.156;5.382;2024-01-30T08:14:03;5.55;;;2.97;;
26042;SDS011;13818;52.156;5.382;2024-01-30T08:16:29;6.93;;;3.42;;
26042;SDS011;13818;52.156;5.382;2024-01-30T08:18:56;4.55;;;2.22;;
26042;SDS011;13818;52.156;5.382;2024-01-30T08:21:24;4.57;;;2.83;;
26042;SDS011;13818;52.156;5.382;2024-01-30T08:23:50;6.88;;;2.95;;
26042;SDS011;13818;52.156;5.382;2024-01-30T08:26:17;5.75;;;3.63;;
26042;SDS011;13818;52.156;5.382;2024-01-30T08:28:43;10.07;;;3.55;;
26042;SDS011;13818;52.156;5.382;2024-01-30T08:31:10;5.97;;;3.65;;
26042;SDS011;13818;52.156;5.382;2024-01-30T08:33:36;7.03;;;3.50;;
26042;SDS011;13818;52.156;5.382;2024-01-30T08:36:03;10.13;;;3.15;;
26042;SDS011;13818;52.156;5.382;2024-01-30T08:38:30;6.60;;;3.40;;
26042;SDS011;13818;52.156;5.382;2024-01-30T08:40:57;6.55;;;2.97;;
26042;SDS011;13818;52.156;5.382;2024-01-30T08:43:23;8.00;;;2.95;;
26042;SDS011;13818;52.156;5.382;2024-01-30T08:45:50;10.48;;;4.00;;
26042;SDS011;13818;52.156;5.382;2024-01-30T08:48:16;3.28;;;1.77;;
26042;SDS011;13818;52.156;5.382;2024-01-30T08:50:43;7.50;;;3.25;;
26042;SDS011;13818;52.156;5.382;2024-01-30T08:53:09;6.63;;;2.90;;
26042;SDS011;13818;52.156;5.382;2024-01-30T08:55:37;9.18;;;3.35;;
26042;SDS011;13818;52.156;5.382;2024-01-30T08:58:04;8.32;;;3.40;;
26042;SDS011;13818;52.156;5.382;2024-01-30T09:00:30;4.25;;;2.88;;
26042;SDS011;13818;52.156;5.382;2024-01-30T09:02:57;5.95;;;3.08;;
26042;SDS011;13818;52.156;5.382;2024-01-30T09:05:23;6.28;;;2.42;;
26042;SDS011;13818;52.156;5.382;2024-01-30T09:07:49;6.18;;;3.03;;
26042;SDS011;13818;52.156;5.382;2024-01-30T09:10:16;5.32;;;2.53;;
26042;SDS011;13818;52.156;5.382;2024-01-30T09:12:44;7.20;;;4.15;;
26042;SDS011;13818;52.156;5.382;2024-01-30T09:15:10;8.63;;;3.67;;
26042;SDS011;13818;52.156;5.382;2024-01-30T09:17:37;3.85;;;2.60;;
26042;SDS011;13818;52.156;5.382;2024-01-30T09:20:04;6.40;;;3.00;;
26042;SDS011;13818;52.156;5.382;2024-01-30T09:22:31;6.85;;;3.53;;
26042;SDS011;13818;52.156;5.382;2024-01-30T09:24:58;6.93;;;3.25;;
26042;SDS011;13818;52.156;5.382;2024-01-30T09:27:24;7.57;;;3.50;;
26042;SDS011;13818;52.156;5.382;2024-01-30T09:29:52;7.45;;;3.42;;
26042;SDS011;13818;52.156;5.382;2024-01-30T09:32:19;6.50;;;3.75;;
26042;SDS011;13818;52.156;5.382;2024-01-30T09:34:45;5.50;;;3.47;;
26042;SDS011;13818;52.156;5.382;2024-01-30T09:37:12;5.75;;;3.70;;
26042;SDS011;13818;52.156;5.382;2024-01-30T09:39:40;4.38;;;3.17;;
26042;SDS011;13818;52.156;5.382;2024-01-30T09:42:09;4.65;;;3.08;;
26042;SDS011;13818;52.156;5.382;2024-01-30T09:44:43;11.55;;;3.53;;
26042;SDS011;13818;52.156;5.382;2024-01-30T09:47:11;7.15;;;2.72;;
26042;SDS011;13818;52.156;5.382;2024-01-30T09:49:38;4.80;;;2.88;;
26042;SDS011;13818;52.156;5.382;2024-01-30T09:52:05;4.53;;;2.78;;
26042;SDS011;13818;52.156;5.382;2024-01-30T09:54:32;6.03;;;3.22;;
26042;SDS011;13818;52.156;5.382;2024-01-30T09:57:01;5.50;;;3.60;;
26042;SDS011;13818;52.156;5.382;2024-01-30T09:59:27;7.30;;;3.38;;
26042;SDS011;13818;52.156;5.382;2024-01-30T10:01:53;4.90;;;2.95;;
26042;SDS011;13818;52.156;5.382;2024-01-30T10:04:23;7.32;;;3.45;;
26042;SDS011;13818;52.156;5.382;2024-01-30T10:06:49;10.85;;;3.47;;
26042;SDS011;13818;52.156;5.382;2024-01-30T10:09:17;7.05;;;3.13;;
26042;SDS011;13818;52.156;5.382;2024-01-30T10:11:44;6.40;;;2.95;;
26042;SDS011;13818;52.156;5.382;2024-01-30T10:14:10;9.43;;;3.45;;
26042;SDS011;13818;52.156;5.382;2024-01-30T10:16:37;6.85;;;3.08;;
26042;SDS011;13818;52.156;5.382;2024-01-30T10:19:03;8.98;;;3.75;;
26042;SDS011;13818;52.156;5.382;2024-01-30T10:21:31;6.97;;;3.38;;
26042;SDS011;13818;52.156;5.382;2024-01-30T10:23:57;7.05;;;3.22;;
26042;SDS011;13818;52.156;5.382;2024-01-30T10:26:24;4.90;;;2.70;;
26042;SDS011;13818;52.156;5.382;2024-01-30T10:28:50;7.85;;;3.63;;
26042;SDS011;13818;52.156;5.382;2024-01-30T10:31:17;6.70;;;3.65;;
26042;SDS011;13818;52.156;5.382;2024-01-30T10:33:44;9.68;;;3.40;;
26042;SDS011;13818;52.156;5.382;2024-01-30T10:36:10;9.13;;;3.67;;
26042;SDS011;13818;52.156;5.382;2024-01-30T10:38:42;4.55;;;2.67;;
26042;SDS011;13818;52.156;5.382;2024-01-30T10:41:11;5.47;;;3.10;;
26042;SDS011;13818;52.156;5.382;2024-01-30T10:43:40;11.45;;;3.47;;
26042;SDS011;13818;52.156;5.382;2024-01-30T10:46:10;5.25;;;3.00;;
26042;SDS011;13818;52.156;5.382;2024-01-30T10:48:41;8.52;;;3.17;;
26042;SDS011;13818;52.156;5.382;2024-01-30T10:51:09;5.75;;;3.08;;
26042;SDS011;13818;52.156;5.382;2024-01-30T10:53:37;7.82;;;3.17;;
26042;SDS011;13818;52.156;5.382;2024-01-30T10:56:06;6.88;;;3.88;;
26042;SDS011;13818;52.156;5.382;2024-01-30T10:58:35;7.43;;;3.33;;
26042;SDS011;13818;52.156;5.382;2024-01-30T11:01:01;7.13;;;3.28;;
26042;SDS011;13818;52.156;5.382;2024-01-30T11:03:29;7.18;;;3.35;;
26042;SDS011;13818;52.156;5.382;2024-01-30T11:05:58;6.38;;;3.03;;
26042;SDS011;13818;52.156;5.382;2024-01-30T11:08:26;4.50;;;2.83;;
26042;SDS011;13818;52.156;5.382;2024-01-30T11:10:55;3.92;;;2.08;;
26042;SDS011;13818;52.156;5.382;2024-01-30T11:13:24;5.65;;;2.42;;
26042;SDS011;13818;52.156;5.382;2024-01-30T11:15:53;5.38;;;2.13;;
26042;SDS011;13818;52.156;5.382;2024-01-30T11:18:23;7.53;;;2.38;;
26042;SDS011;13818;52.156;5.382;2024-01-30T11:20:50;4.13;;;2.10;;
26042;SDS011;13818;52.156;5.382;2024-01-30T11:23:17;4.93;;;1.95;;
26042;SDS011;13818;52.156;5.382;2024-01-30T11:25:43;3.75;;;2.25;;
26042;SDS011;13818;52.156;5.382;2024-01-30T11:28:12;5.50;;;1.95;;
26042;SDS011;13818;52.156;5.382;2024-01-30T11:30:41;3.47;;;1.70;;
26042;SDS011;13818;52.156;5.382;2024-01-30T11:33:09;3.45;;;1.10;;
26042;SDS011;13818;52.156;5.382;2024-01-30T11:35:37;3.30;;;1.10;;
26042;SDS011;13818;52.156;5.382;2024-01-30T11:38:05;7.18;;;1.77;;
26042;SDS011;13818;52.156;5.382;2024-01-30T11:40:32;2.95;;;1.70;;
26042;SDS011;13818;52.156;5.382;2024-01-30T11:43:00;2.75;;;1.23;;
26042;SDS011;13818;52.156;5.382;2024-01-30T11:45:28;7.53;;;1.13;;
26042;SDS011;13818;52.156;5.382;2024-01-30T11:47:55;1.25;;;0.70;;
26042;SDS011;13818;52.156;5.382;2024-01-30T11:50:22;1.75;;;0.70;;
26042;SDS011;13818;52.156;5.382;2024-01-30T11:52:50;2.50;;;0.77;;
26042;SDS011;13818;52.156;5.382;2024-01-30T11:55:17;0.77;;;0.57;;
26042;SDS011;13818;52.156;5.382;2024-01-30T11:57:44;3.83;;;0.77;;
26042;SDS011;13818;52.156;5.382;2024-01-30T12:00:14;1.30;;;0.73;;
26042;SDS011;13818;52.156;5.382;2024-01-30T12:02:42;1.23;;;0.50;;
26042;SDS011;13818;52.156;5.382;2024-01-30T12:05:09;1.30;;;0.45;;
26042;SDS011;13818;52.156;5.382;2024-01-30T12:07:36;2.97;;;0.70;;
26042;SDS011;13818;52.156;5.382;2024-01-30T12:10:03;1.20;;;0.65;;
26042;SDS011;13818;52.156;5.382;2024-01-30T12:12:30;5.55;;;1.33;;
26042;SDS011;13818;52.156;5.382;2024-01-30T12:14:57;1.35;;;0.73;;
26042;SDS011;13818;52.156;5.382;2024-01-30T12:17:26;4.65;;;1.02;;
26042;SDS011;13818;52.156;5.382;2024-01-30T12:20:02;1.40;;;0.77;;
26042;SDS011;13818;52.156;5.382;2024-01-30T12:22:31;4.65;;;1.30;;
26042;SDS011;13818;52.156;5.382;2024-01-30T12:24:57;3.85;;;0.80;;
26042;SDS011;13818;52.156;5.382;2024-01-30T12:27:24;2.05;;;1.30;;
26042;SDS011;13818;52.156;5.382;2024-01-30T12:29:55;4.65;;;1.20;;
26042;SDS011;13818;52.156;5.382;2024-01-30T12:32:22;7.72;;;1.00;;
26042;SDS011;13818;52.156;5.382;2024-01-30T12:34:49;4.35;;;1.20;;
26042;SDS011;13818;52.156;5.382;2024-01-30T12:37:15;4.57;;;1.52;;
26042;SDS011;13818;52.156;5.382;2024-01-30T12:39:48;3.33;;;1.00;;
26042;SDS011;13818;52.156;5.382;2024-01-30T12:42:14;1.02;;;0.55;;
26042;SDS011;13818;52.156;5.382;2024-01-30T12:44:43;1.42;;;0.80;;
26042;SDS011;13818;52.156;5.382;2024-01-30T12:47:09;2.38;;;1.10;;
26042;SDS011;13818;52.156;5.382;2024-01-30T12:49:36;1.50;;;1.17;;
26042;SDS011;13818;52.156;5.382;2024-01-30T12:52:04;2.33;;;0.95;;
26042;SDS011;13818;52.156;5.382;2024-01-30T12:54:30;3.75;;;1.30;;
26042;SDS011;13818;52.156;5.382;2024-01-30T12:56:58;2.60;;;0.93;;
26042;SDS011;13818;52.156;5.382;2024-01-30T12:59:25;3.50;;;1.20;;
26042;SDS011;13818;52.156;5.382;2024-01-30T13:01:51;1.30;;;1.02;;
26042;SDS011;13818;52.156;5.382;2024-01-30T13:04:18;1.67;;;1.10;;
26042;SDS011;13818;52.156;5.382;2024-01-30T13:06:45;3.38;;;1.17;;
26042;SDS011;13818;52.156;5.382;2024-01-30T13:09:11;2.13;;;1.10;;
26042;SDS011;13818;52.156;5.382;2024-01-30T13:11:38;2.92;;;1.00;;
26042;SDS011;13818;52.156;5.382;2024-01-30T13:14:06;2.22;;;0.82;;
26042;SDS011;13818;52.156;5.382;2024-01-30T13:16:32;1.17;;;0.77;;
26042;SDS011;13818;52.156;5.382;2024-01-30T13:18:59;3.47;;;0.80;;
26042;SDS011;13818;52.156;5.382;2024-01-30T13:21:27;0.85;;;0.50;;
26042;SDS011;13818;52.156;5.382;2024-01-30T13:23:53;2.50;;;0.57;;
26042;SDS011;13818;52.156;5.382;2024-01-30T13:26:20;0.65;;;0.40;;
26042;SDS011;13818;52.156;5.382;2024-01-30T13:28:48;3.20;;;0.70;;
26042;SDS011;13818;52.156;5.382;2024-01-30T13:31:15;2.35;;;0.55;;
26042;SDS011;13818;52.156;5.382;2024-01-30T13:33:42;2.20;;;0.47;;
26042;SDS011;13818;52.156;5.382;2024-01-30T13:36:08;0.95;;;0.47;;
26042;SDS011;13818;52.156;5.382;2024-01-30T13:38:36;1.35;;;0.50;;
26042;SDS011;13818;52.156;5.382;2024-01-30T13:41:04;0.60;;;0.40;;
26042;SDS011;13818;52.156;5.382;2024-01-30T13:43:31;3.63;;;1.42;;
26042;SDS011;13818;52.156;5.382;2024-01-30T13:45:57;1.23;;;0.50;;
26042;SDS011;13818;52.156;5.382;2024-01-30T13:48:25;2.45;;;0.40;;
26042;SDS011;13818;52.156;5.382;2024-01-30T13:50:52;3.38;;;0.98;;
26042;SDS011;13818;52.156;5.382;2024-01-30T13:53:18;0.45;;;0.22;;
26042;SDS011;13818;52.156;5.382;2024-01-30T13:55:45;4.60;;;0.70;;
26042;SDS011;13818;52.156;5.382;2024-01-30T13:58:12;1.45;;;0.68;;
26042;SDS011;13818;52.156;5.382;2024-01-30T14:00:39;2.33;;;1.02;;
26042;SDS011;13818;52.156;5.382;2024-01-30T14:03:06;2.25;;;0.50;;
26042;SDS011;13818;52.156;5.382;2024-01-30T14:05:34;1.05;;;0.77;;
26042;SDS011;13818;52.156;5.382;2024-01-30T14:08:01;1.05;;;0.70;;
26042;SDS011;13818;52.156;5.382;2024-01-30T14:10:27;1.65;;;0.68;;
26042;SDS011;13818;52.156;5.382;2024-01-30T14:12:54;0.90;;;0.68;;
26042;SDS011;13818;52.156;5.382;2024-01-30T14:15:21;3.80;;;1.10;;
26042;SDS011;13818;52.156;5.382;2024-01-30T14:17:47;5.75;;;0.98;;
26042;SDS011;13818;52.156;5.382;2024-01-30T14:20:14;1.13;;;0.43;;
26042;SDS011;13818;52.156;5.382;2024-01-30T14:22:43;3.95;;;0.88;;
26042;SDS011;13818;52.156;5.382;2024-01-30T14:25:10;4.15;;;0.75;;
26042;SDS011;13818;52.156;5.382;2024-01-30T14:27:37;6.15;;;1.30;;
26042;SDS011;13818;52.156;5.382;2024-01-30T14:30:04;4.13;;;1.08;;
26042;SDS011;13818;52.156;5.382;2024-01-30T14:32:32;4.05;;;1.08;;
26042;SDS011;13818;52.156;5.382;2024-01-30T14:35:00;1.38;;;0.22;;
26042;SDS011;13818;52.156;5.382;2024-01-30T14:37:26;1.35;;;0.68;;
26042;SDS011;13818;52.156;5.382;2024-01-30T14:39:56;1.30;;;0.80;;
26042;SDS011;13818;52.156;5.382;2024-01-30T14:42:23;4.15;;;0.63;;
26042;SDS011;13818;52.156;5.382;2024-01-30T14:44:49;0.85;;;0.57;;
26042;SDS011;13818;52.156;5.382;2024-01-30T14:47:16;8.18;;;1.00;;
26042;SDS011;13818;52.156;5.382;2024-01-30T14:49:42;1.52;;;0.60;;
26042;SDS011;13818;52.156;5.382;2024-01-30T14:52:09;0.88;;;0.68;;